createdAt,value
2023-03-14T00:00:12.717Z,0.93
2023-03-14T00:02:39.717Z,0.60
2023-03-14T00:05:07.148Z,0.50
2023-03-14T00:07:39.199Z,0.98
2023-03-14T00:10:08.931Z,0.68
2023-03-14T00:12:35.686Z,0.38
2023-03-14T00:15:02.247Z,0.60
2023-03-14T00:17:28.931Z,0.60
2023-03-14T00:19:55.392Z,0.35
2023-03-14T00:22:22.610Z,0.50
2023-03-14T00:24:49.136Z,0.67
2023-03-14T00:27:15.619Z,0.40
2023-03-14T00:29:43.994Z,0.30
2023-03-14T00:32:10.637Z,0.47
2023-03-14T00:34:40.393Z,0.43
2023-03-14T00:37:07.068Z,0.20
2023-03-14T00:39:33.751Z,0.20
2023-03-14T00:42:00.334Z,0.30
2023-03-14T00:44:28.661Z,0.25
2023-03-14T00:46:55.392Z,0.30
2023-03-14T00:49:22.067Z,0.22
2023-03-14T00:51:51.794Z,0.30
2023-03-14T00:54:22.015Z,0.55
2023-03-14T00:56:48.812Z,0.40
2023-03-14T00:59:16.898Z,0.32
2023-03-14T01:01:43.527Z,0.40
2023-03-14T01:04:10.859Z,0.68
2023-03-14T01:06:37.428Z,0.90
2023-03-14T01:09:04.148Z,0.95
2023-03-14T01:11:33.117Z,0.38
2023-03-14T01:14:00.167Z,0.20
2023-03-14T01:16:32.574Z,0.30
2023-03-14T01:19:01.642Z,0.30
2023-03-14T01:21:33.667Z,0.30
2023-03-14T01:24:02.155Z,0.30
2023-03-14T01:26:31.603Z,0.25
2023-03-14T01:28:58.659Z,0.20
2023-03-14T01:31:26.593Z,0.20
2023-03-14T01:33:53.637Z,0.10
2023-03-14T01:36:20.351Z,0.40
2023-03-14T01:38:47.377Z,0.20
2023-03-14T01:41:22.155Z,0.20
2023-03-14T01:43:49.379Z,0.10
2023-03-14T01:46:40.233Z,0.30
2023-03-14T01:49:35.112Z,0.30
2023-03-14T01:52:23.760Z,0.30
2023-03-14T01:54:57.049Z,0.35
2023-03-14T01:57:30.897Z,0.40
2023-03-14T02:00:16.202Z,0.25
2023-03-14T02:02:46.897Z,0.30
2023-03-14T02:05:19.674Z,0.20
2023-03-14T02:07:53.475Z,0.10
2023-03-14T02:10:27.054Z,0.10
2023-03-14T02:12:57.676Z,0.10
2023-03-14T02:15:36.870Z,0.10
2023-03-14T02:18:11.385Z,0.05
2023-03-14T02:21:03.792Z,0.35
2023-03-14T02:23:45.165Z,0.10
2023-03-14T02:26:14.588Z,0.20
2023-03-14T02:28:41.277Z,0.20
2023-03-14T02:31:09.304Z,0.40
2023-03-14T02:33:38.884Z,0.30
2023-03-14T02:36:08.413Z,0.43
2023-03-14T02:38:37.927Z,0.30
2023-03-14T02:41:06.898Z,0.03
2023-03-14T02:43:38.687Z,0.28
2023-03-14T02:46:13.514Z,0.10
2023-03-14T02:48:58.292Z,0.17
2023-03-14T02:51:27.000Z,0.22
2023-03-14T02:53:53.767Z,0.10
2023-03-14T02:56:22.583Z,0.20
2023-03-14T02:58:50.143Z,0.22
2023-03-14T03:03:54.610Z,0.10
2023-03-14T03:06:21.211Z,0.10
2023-03-14T03:08:47.682Z,0.10
2023-03-14T03:11:14.278Z,0.10
2023-03-14T03:13:41.088Z,0.10
2023-03-14T03:16:09.089Z,0.10
2023-03-14T03:18:35.814Z,0.60
2023-03-14T03:21:04.587Z,0.40
2023-03-14T03:23:31.481Z,0.10
2023-03-14T03:25:58.392Z,0.10
2023-03-14T03:28:25.010Z,0.32
2023-03-14T03:30:54.980Z,0.10
2023-03-14T03:33:22.019Z,0.68
2023-03-14T03:35:50.848Z,0.10
2023-03-14T03:38:27.603Z,0.00
2023-03-14T03:40:55.577Z,0.10
2023-03-14T03:43:25.483Z,0.08
2023-03-14T03:45:52.281Z,0.00
2023-03-14T03:48:20.546Z,0.13
2023-03-14T03:50:48.252Z,0.00
2023-03-14T03:53:32.400Z,0.00
2023-03-14T03:56:00.353Z,0.00
2023-03-14T03:58:26.844Z,0.00
2023-03-14T04:00:53.366Z,0.00
2023-03-14T04:03:19.946Z,0.08
2023-03-14T04:05:46.480Z,0.00
2023-03-14T04:08:13.741Z,0.00
2023-03-14T04:10:40.361Z,0.00
2023-03-14T04:13:13.161Z,0.00
2023-03-14T04:18:28.832Z,0.10
2023-03-14T04:20:56.717Z,0.13
2023-03-14T04:23:31.622Z,0.52
2023-03-14T04:25:58.203Z,0.00
2023-03-14T04:28:25.600Z,0.23
2023-03-14T04:30:52.562Z,0.10
2023-03-14T04:33:22.935Z,0.00
2023-03-14T04:35:56.597Z,0.00
2023-03-14T04:38:23.146Z,0.10
2023-03-14T04:40:50.791Z,0.00
2023-03-14T04:43:19.334Z,0.00
2023-03-14T04:45:50.783Z,0.08
2023-03-14T04:48:18.192Z,0.00
2023-03-14T04:50:44.766Z,0.10
2023-03-14T04:53:11.395Z,0.47
2023-03-14T04:55:40.306Z,0.10
2023-03-14T04:58:07.054Z,0.20
2023-03-14T05:00:33.937Z,0.20
2023-03-14T05:03:12.685Z,0.00
2023-03-14T05:05:58.160Z,0.00
2023-03-14T05:08:42.482Z,0.10
2023-03-14T05:11:14.859Z,0.00
2023-03-14T05:13:52.344Z,0.00
2023-03-14T05:16:28.575Z,0.00
2023-03-14T05:19:01.697Z,0.47
2023-03-14T05:21:51.010Z,0.10
2023-03-14T05:24:36.547Z,0.20
2023-03-14T05:27:04.078Z,0.30
2023-03-14T05:29:39.884Z,0.00
2023-03-14T05:32:27.648Z,0.10
2023-03-14T05:35:16.948Z,0.20
2023-03-14T05:38:01.858Z,0.00
2023-03-14T05:40:46.471Z,0.82
2023-03-14T05:43:36.136Z,0.10
2023-03-14T05:46:12.466Z,0.05
2023-03-14T05:49:11.113Z,0.15
2023-03-14T05:51:51.212Z,0.20
2023-03-14T05:54:31.152Z,0.00
2023-03-14T05:57:18.218Z,0.00
2023-03-14T06:00:03.976Z,0.10
2023-03-14T06:02:40.388Z,0.00
2023-03-14T06:05:17.686Z,0.10
2023-03-14T06:07:44.338Z,0.00
2023-03-14T06:10:12.288Z,0.03
2023-03-14T06:12:38.811Z,0.05
2023-03-14T06:15:06.350Z,0.08
2023-03-14T06:17:34.366Z,0.20
2023-03-14T06:20:10.064Z,0.22
2023-03-14T06:25:03.305Z,0.20
2023-03-14T06:27:29.875Z,0.20
2023-03-14T06:32:25.736Z,0.22
2023-03-14T06:34:54.589Z,0.20
2023-03-14T06:37:21.322Z,0.10
2023-03-14T06:39:49.010Z,0.00
2023-03-14T06:42:27.050Z,0.10
2023-03-14T06:44:54.759Z,0.20
2023-03-14T06:47:21.501Z,0.05
2023-03-14T06:49:49.861Z,0.10
2023-03-14T06:52:17.391Z,0.00
2023-03-14T06:54:43.967Z,0.10
2023-03-14T06:57:10.951Z,0.10
2023-03-14T06:59:37.486Z,0.00
2023-03-14T07:02:04.081Z,0.00
2023-03-14T07:04:30.643Z,0.10
2023-03-14T07:06:57.534Z,0.03
2023-03-14T07:09:24.239Z,0.10
2023-03-14T07:11:56.954Z,0.10
2023-03-14T07:14:23.780Z,0.30
2023-03-14T07:16:50.461Z,0.00
2023-03-14T07:19:17.579Z,0.00
2023-03-14T07:21:44.051Z,0.00
2023-03-14T07:24:12.935Z,0.10
2023-03-14T07:26:39.779Z,0.20
2023-03-14T07:29:06.812Z,0.10
2023-03-14T07:31:33.728Z,0.00
2023-03-14T07:34:00.876Z,0.10
2023-03-14T07:36:31.897Z,0.10
2023-03-14T07:38:59.271Z,0.20
2023-03-14T07:41:38.511Z,0.05
2023-03-14T07:44:25.834Z,0.10
2023-03-14T07:46:52.457Z,0.10
2023-03-14T07:49:19.094Z,0.20
2023-03-14T07:51:48.727Z,0.22
2023-03-14T07:54:15.444Z,0.60
2023-03-14T07:56:41.913Z,0.25
2023-03-14T07:59:08.440Z,0.10
2023-03-14T08:01:35.087Z,0.10
2023-03-14T08:04:01.695Z,0.10
2023-03-14T08:06:28.369Z,0.38
2023-03-14T08:08:54.840Z,0.00
2023-03-14T08:11:21.685Z,0.20
2023-03-14T08:13:48.294Z,0.28
2023-03-14T08:16:14.796Z,0.30
2023-03-14T08:18:41.270Z,0.60
2023-03-14T08:21:07.880Z,0.32
2023-03-14T08:23:34.341Z,0.10
2023-03-14T08:26:00.909Z,0.15
2023-03-14T08:28:27.546Z,0.20
2023-03-14T08:30:56.035Z,0.20
2023-03-14T08:33:22.677Z,0.20
2023-03-14T08:35:49.208Z,0.20
2023-03-14T08:38:15.690Z,0.30
2023-03-14T08:40:42.257Z,0.88
2023-03-14T08:43:08.746Z,0.13
2023-03-14T08:45:35.246Z,0.30
2023-03-14T08:48:01.783Z,0.20
2023-03-14T08:50:28.373Z,0.20
2023-03-14T08:52:54.957Z,0.52
2023-03-14T08:55:21.711Z,0.10
2023-03-14T08:57:48.194Z,0.20
2023-03-14T09:00:15.188Z,0.10
2023-03-14T09:02:43.115Z,0.20
2023-03-14T09:05:10.213Z,0.20
2023-03-14T09:07:37.256Z,0.30
2023-03-14T09:10:04.078Z,0.20
2023-03-14T09:12:30.779Z,0.20
2023-03-14T09:14:57.269Z,0.20
2023-03-14T09:17:23.804Z,0.10
2023-03-14T09:19:50.453Z,0.10
2023-03-14T09:22:17.097Z,0.50
2023-03-14T09:24:43.693Z,0.10
2023-03-14T09:27:10.180Z,0.10
2023-03-14T09:29:36.821Z,0.10
2023-03-14T09:32:03.565Z,0.10
2023-03-14T09:34:30.653Z,0.20
2023-03-14T09:36:57.262Z,0.10
2023-03-14T09:39:23.908Z,0.10
2023-03-14T09:41:53.352Z,0.57
2023-03-14T09:44:32.969Z,0.50
2023-03-14T09:47:05.287Z,0.10
2023-03-14T09:49:35.555Z,0.30
2023-03-14T09:52:08.915Z,0.32
2023-03-14T09:54:39.204Z,0.45
2023-03-14T09:57:11.919Z,1.92
2023-03-14T09:59:39.820Z,2.08
2023-03-14T10:02:43.791Z,1.05
2023-03-14T10:05:19.176Z,0.40
2023-03-14T10:07:46.043Z,0.60
2023-03-14T10:10:20.443Z,0.65
2023-03-14T10:12:55.394Z,0.68
2023-03-14T10:15:28.485Z,0.43
2023-03-14T10:17:54.956Z,0.75
2023-03-14T10:20:37.061Z,0.75
2023-03-14T10:23:20.185Z,0.98
2023-03-14T10:26:00.726Z,0.70
2023-03-14T10:29:04.238Z,0.32
2023-03-14T10:31:48.206Z,0.45
2023-03-14T10:34:21.840Z,0.50
2023-03-14T10:36:53.637Z,0.45
2023-03-14T10:39:46.119Z,0.40
2023-03-14T10:42:21.797Z,0.30
2023-03-14T10:44:55.669Z,0.30
2023-03-14T10:47:25.285Z,0.32
2023-03-14T10:49:52.503Z,0.30
2023-03-14T10:52:45.641Z,0.43
2023-03-14T10:57:44.337Z,0.50
2023-03-14T11:00:22.195Z,0.20
2023-03-14T11:03:04.591Z,0.30
2023-03-14T11:05:38.433Z,0.40
2023-03-14T11:08:35.425Z,0.20
2023-03-14T11:11:23.242Z,0.50
2023-03-14T11:16:41.992Z,0.35
2023-03-14T11:19:34.387Z,0.40
2023-03-14T11:22:04.736Z,0.20
2023-03-14T11:24:41.403Z,0.10
2023-03-14T11:27:18.648Z,0.20
2023-03-14T11:30:16.659Z,0.67
2023-03-14T11:32:54.954Z,0.43
2023-03-14T11:36:20.020Z,0.22
2023-03-14T11:38:57.639Z,0.17
2023-03-14T11:41:30.622Z,0.10
2023-03-14T11:43:59.345Z,0.08
2023-03-14T11:46:35.686Z,0.30
2023-03-14T11:49:16.043Z,0.25
2023-03-14T11:51:47.249Z,0.20
2023-03-14T11:54:25.235Z,0.30
2023-03-14T11:56:56.417Z,0.10
2023-03-14T11:59:33.011Z,0.30
2023-03-14T12:02:10.136Z,0.20
2023-03-14T12:05:15.207Z,0.20
2023-03-14T12:08:08.048Z,0.25
2023-03-14T12:10:46.391Z,0.20
2023-03-14T12:13:15.376Z,0.10
2023-03-14T12:15:48.889Z,0.15
2023-03-14T12:18:36.637Z,0.10
2023-03-14T12:21:12.314Z,0.10
2023-03-14T12:23:50.922Z,0.30
2023-03-14T12:26:44.183Z,0.10
2023-03-14T12:29:17.157Z,0.08
2023-03-14T12:31:49.590Z,0.10
2023-03-14T12:34:16.009Z,0.30
2023-03-14T12:36:45.601Z,0.20
2023-03-14T12:39:22.485Z,0.10
2023-03-14T12:41:54.306Z,0.00
2023-03-14T12:44:29.887Z,0.10
2023-03-14T12:47:19.615Z,0.10
2023-03-14T12:49:49.609Z,0.13
2023-03-14T12:52:20.193Z,0.10
2023-03-14T12:54:58.288Z,0.10
2023-03-14T12:57:37.288Z,0.10
2023-03-14T13:00:17.479Z,0.08
2023-03-14T13:02:45.857Z,0.10
2023-03-14T13:05:17.542Z,0.25
2023-03-14T13:07:44.141Z,0.00
2023-03-14T13:13:03.015Z,0.00
2023-03-14T13:15:39.230Z,0.10
2023-03-14T13:18:42.232Z,0.05
2023-03-14T13:21:20.253Z,0.00
2023-03-14T13:26:37.517Z,0.10
2023-03-14T13:29:25.155Z,0.10
2023-03-14T13:31:54.572Z,0.35
2023-03-14T13:34:21.588Z,0.05
2023-03-14T13:36:48.159Z,0.05
2023-03-14T13:39:20.621Z,0.00
2023-03-14T13:41:47.822Z,0.10
2023-03-14T13:44:30.091Z,0.00
2023-03-14T13:47:00.976Z,0.30
2023-03-14T13:49:29.411Z,0.10
2023-03-14T13:51:56.305Z,0.20
2023-03-14T13:54:23.645Z,0.03
2023-03-14T13:57:06.784Z,0.10
2023-03-14T13:59:36.557Z,0.05
2023-03-14T14:02:16.054Z,0.00
2023-03-14T14:04:44.818Z,0.10
2023-03-14T14:07:16.284Z,0.25
2023-03-14T14:09:47.308Z,0.10
2023-03-14T14:12:29.265Z,0.10
2023-03-14T14:15:16.340Z,0.10
2023-03-14T14:17:50.962Z,0.20
2023-03-14T14:20:42.509Z,0.08
2023-03-14T14:23:12.841Z,0.10
2023-03-14T14:25:39.808Z,0.00
2023-03-14T14:28:16.919Z,0.10
2023-03-14T14:30:43.604Z,0.00
2023-03-14T14:33:21.778Z,0.05
2023-03-14T14:35:55.152Z,0.10
2023-03-14T14:38:21.989Z,0.13
2023-03-14T14:40:54.740Z,0.20
2023-03-14T14:43:27.467Z,0.30
2023-03-14T14:45:55.953Z,0.13
2023-03-14T14:48:27.777Z,0.10
2023-03-14T14:51:01.417Z,0.10
2023-03-14T14:53:31.908Z,0.20
2023-03-14T14:56:00.837Z,0.10
2023-03-14T14:58:30.553Z,0.20
2023-03-14T15:01:04.056Z,0.03
2023-03-14T15:03:33.531Z,0.10
2023-03-14T15:06:00.490Z,0.00
2023-03-14T15:08:27.945Z,0.10
2023-03-14T15:10:55.487Z,0.10
2023-03-14T15:13:22.081Z,0.10
2023-03-14T15:15:50.793Z,0.05
2023-03-14T15:18:19.542Z,0.30
2023-03-14T15:20:46.705Z,0.00
2023-03-14T15:23:16.805Z,0.10
2023-03-14T15:25:55.125Z,0.10
2023-03-14T15:28:28.184Z,0.10
2023-03-14T15:30:57.603Z,0.20
2023-03-14T15:33:25.632Z,0.17
2023-03-14T15:35:53.193Z,0.20
2023-03-14T15:38:22.102Z,0.15
2023-03-14T15:40:49.191Z,0.10
2023-03-14T15:43:15.962Z,0.10
2023-03-14T15:45:42.638Z,0.25
2023-03-14T15:48:20.690Z,0.10
2023-03-14T15:53:14.541Z,0.10
2023-03-14T15:55:41.080Z,0.20
2023-03-14T15:58:16.265Z,0.05
2023-03-14T16:00:42.845Z,0.10
2023-03-14T16:03:09.321Z,0.22
2023-03-14T16:05:35.930Z,0.25
2023-03-14T16:08:02.450Z,0.32
2023-03-14T16:10:30.504Z,0.38
2023-03-14T16:15:23.869Z,0.40
2023-03-14T16:17:56.958Z,0.35
2023-03-14T16:20:24.142Z,0.17
2023-03-14T16:22:50.629Z,0.73
2023-03-14T16:25:17.162Z,0.30
2023-03-14T16:27:43.594Z,0.30
2023-03-14T16:30:12.118Z,0.75
2023-03-14T16:32:38.630Z,0.60
2023-03-14T16:35:05.721Z,0.40
2023-03-14T16:37:32.205Z,1.23
2023-03-14T16:40:13.996Z,0.28
2023-03-14T16:42:54.860Z,0.40
2023-03-14T16:45:27.010Z,0.55
2023-03-14T16:47:53.475Z,0.60
2023-03-14T16:50:19.924Z,0.50
2023-03-14T16:52:46.507Z,0.50
2023-03-14T16:55:13.045Z,0.20
2023-03-14T16:57:39.558Z,0.30
2023-03-14T17:00:08.605Z,0.40
2023-03-14T17:02:36.340Z,0.40
2023-03-14T17:05:02.935Z,0.30
2023-03-14T17:07:29.362Z,0.25
2023-03-14T17:09:56.230Z,0.38
2023-03-14T17:12:22.781Z,0.30
2023-03-14T17:14:49.336Z,0.40
2023-03-14T17:17:15.897Z,0.77
2023-03-14T17:19:42.352Z,0.20
2023-03-14T17:22:22.564Z,0.68
2023-03-14T17:24:50.020Z,0.40
2023-03-14T17:27:16.510Z,0.70
2023-03-14T17:29:43.136Z,0.52
2023-03-14T17:32:09.680Z,0.30
2023-03-14T17:34:36.279Z,0.45
2023-03-14T17:37:03.620Z,0.70
2023-03-14T17:39:30.104Z,0.50
2023-03-14T17:41:56.676Z,0.60
2023-03-14T17:44:23.178Z,0.45
2023-03-14T17:46:50.129Z,0.40
2023-03-14T17:49:16.753Z,0.50
2023-03-14T17:51:43.323Z,0.50
2023-03-14T17:54:09.918Z,0.50
2023-03-14T17:56:36.387Z,0.50
2023-03-14T17:59:02.939Z,0.30
2023-03-14T18:01:29.516Z,0.30
2023-03-14T18:03:56.275Z,0.30
2023-03-14T18:06:23.604Z,0.38
2023-03-14T18:08:50.259Z,0.35
2023-03-14T18:11:17.593Z,0.43
2023-03-14T18:13:45.503Z,0.40
2023-03-14T18:16:13.530Z,0.40
2023-03-14T18:18:40.880Z,0.30
2023-03-14T18:21:07.369Z,0.55
2023-03-14T18:23:34.411Z,0.47
2023-03-14T18:26:01.054Z,0.65
2023-03-14T18:28:28.165Z,0.50
2023-03-14T18:31:00.918Z,0.68
2023-03-14T18:33:27.552Z,0.57
2023-03-14T18:35:54.104Z,0.60
2023-03-14T18:38:20.816Z,0.50
2023-03-14T18:40:47.377Z,0.70
2023-03-14T18:43:13.878Z,0.60
2023-03-14T18:45:40.342Z,0.63
2023-03-14T18:48:07.027Z,0.88
2023-03-14T18:50:33.618Z,0.93
2023-03-14T18:53:00.128Z,1.48
2023-03-14T18:55:26.754Z,1.15
2023-03-14T18:57:53.293Z,1.10
2023-03-14T19:00:20.378Z,0.82
2023-03-14T19:02:47.030Z,1.55
2023-03-14T19:05:13.604Z,0.55
2023-03-14T19:07:40.128Z,0.60
2023-03-14T19:10:06.876Z,0.68
2023-03-14T19:12:33.516Z,0.90
2023-03-14T19:14:59.988Z,0.77
2023-03-14T19:17:26.480Z,1.15
2023-03-14T19:19:53.204Z,1.42
2023-03-14T19:22:19.682Z,1.02
2023-03-14T19:24:46.229Z,1.00
2023-03-14T19:27:12.902Z,0.50
2023-03-14T19:29:39.525Z,0.50
2023-03-14T19:32:06.051Z,0.60
2023-03-14T19:34:32.697Z,0.77
2023-03-14T19:36:59.331Z,1.00
2023-03-14T19:39:26.006Z,0.60
2023-03-14T19:41:52.546Z,0.73
2023-03-14T19:44:19.043Z,0.60
2023-03-14T19:46:45.534Z,0.60
2023-03-14T19:49:12.016Z,0.55
2023-03-14T19:51:38.551Z,0.70
2023-03-14T19:54:05.135Z,0.95
2023-03-14T19:56:32.661Z,0.75
2023-03-14T19:59:00.700Z,1.23
2023-03-14T20:01:27.223Z,0.70
2023-03-14T20:03:53.751Z,0.90
2023-03-14T20:06:20.612Z,1.00
2023-03-14T20:08:47.671Z,1.45
2023-03-14T20:11:14.512Z,0.88
2023-03-14T20:13:41.018Z,0.80
2023-03-14T20:16:08.056Z,1.02
2023-03-14T20:18:34.557Z,1.13
2023-03-14T20:21:05.001Z,1.00
2023-03-14T20:23:31.592Z,0.45
2023-03-14T20:26:00.749Z,0.57
2023-03-14T20:28:27.235Z,0.77
2023-03-14T20:30:54.114Z,0.85
2023-03-14T20:33:21.353Z,0.80
2023-03-14T20:35:59.261Z,0.50
2023-03-14T20:38:27.299Z,0.68
2023-03-14T20:40:58.671Z,0.75
2023-03-14T20:43:25.869Z,0.68
2023-03-14T20:45:57.366Z,0.70
2023-03-14T20:48:24.686Z,2.10
2023-03-14T20:50:52.093Z,1.33
2023-03-14T20:53:20.035Z,1.30
2023-03-14T20:55:46.823Z,1.75
2023-03-14T20:58:13.661Z,1.17
2023-03-14T21:00:48.563Z,1.52
2023-03-14T21:03:16.568Z,0.88
2023-03-14T21:05:44.784Z,0.77
2023-03-14T21:10:37.938Z,1.10
2023-03-14T21:13:04.472Z,0.57
2023-03-14T21:15:31.136Z,0.40
2023-03-14T21:17:57.721Z,0.63
2023-03-14T21:20:24.190Z,0.45
2023-03-14T21:22:50.663Z,0.77
2023-03-14T21:25:17.289Z,0.57
2023-03-14T21:27:43.760Z,0.60
2023-03-14T21:30:11.877Z,0.70
2023-03-14T21:35:05.709Z,0.30
2023-03-14T21:37:32.194Z,0.50
2023-03-14T21:39:58.761Z,0.70
2023-03-14T21:42:25.741Z,0.68
2023-03-14T21:44:52.199Z,0.82
2023-03-14T21:47:20.228Z,0.63
2023-03-14T21:49:46.751Z,1.20
2023-03-14T21:52:14.107Z,0.70
2023-03-14T21:54:41.586Z,1.33
2023-03-14T21:57:09.069Z,0.80
2023-03-14T21:59:37.696Z,0.57
2023-03-14T22:02:07.376Z,0.77
2023-03-14T22:04:34.279Z,0.90
2023-03-14T22:07:02.934Z,0.63
2023-03-14T22:09:30.179Z,0.90
2023-03-14T22:11:56.660Z,0.63
2023-03-14T22:14:23.856Z,0.70
2023-03-14T22:16:54.619Z,0.52
2023-03-14T22:19:22.087Z,0.80
2023-03-14T22:21:49.038Z,0.57
2023-03-14T22:24:15.626Z,1.20
2023-03-14T22:26:42.312Z,0.52
2023-03-14T22:29:09.154Z,0.70
2023-03-14T22:31:36.322Z,0.73
2023-03-14T22:34:03.370Z,0.70
2023-03-14T22:36:29.874Z,0.90
2023-03-14T22:38:56.524Z,0.40
2023-03-14T22:41:23.126Z,0.63
2023-03-14T22:43:49.574Z,0.73
2023-03-14T22:46:16.224Z,0.85
2023-03-14T22:48:42.736Z,0.55
2023-03-14T22:51:10.831Z,1.10
2023-03-14T22:56:06.492Z,0.88
2023-03-14T22:58:33.647Z,0.80
2023-03-14T23:01:00.865Z,0.90
2023-03-14T23:03:27.932Z,0.53
2023-03-14T23:05:54.457Z,0.50
2023-03-14T23:08:20.973Z,0.82
2023-03-14T23:10:47.572Z,0.95
2023-03-14T23:13:14.052Z,0.70
2023-03-14T23:15:42.504Z,0.50
2023-03-14T23:18:11.461Z,0.52
2023-03-14T23:20:37.943Z,0.50
2023-03-14T23:23:04.513Z,0.90
2023-03-14T23:25:35.866Z,0.45
2023-03-14T23:28:05.294Z,0.45
2023-03-14T23:30:31.800Z,0.45
2023-03-14T23:32:58.785Z,0.60
2023-03-14T23:35:25.427Z,0.40
2023-03-14T23:37:51.965Z,0.88
2023-03-14T23:40:18.802Z,0.55
2023-03-14T23:42:45.469Z,0.38
2023-03-14T23:45:12.013Z,0.50
2023-03-14T23:47:38.550Z,0.60
2023-03-14T23:50:05.454Z,0.73
2023-03-14T23:52:32.008Z,1.48
2023-03-14T23:54:58.491Z,0.68
2023-03-14T23:57:25.264Z,0.70
2023-03-14T23:59:51.748Z,0.80
